createdAt,value
2023-05-07T00:00:21.706Z,8.80
2023-05-07T00:02:48.790Z,8.80
2023-05-07T00:05:15.953Z,8.80
2023-05-07T00:07:42.794Z,8.70
2023-05-07T00:10:13.441Z,8.70
2023-05-07T00:12:41.518Z,8.60
2023-05-07T00:15:09.033Z,8.60
2023-05-07T00:17:36.052Z,8.60
2023-05-07T00:20:04.544Z,8.60
2023-05-07T00:23:05.564Z,8.60
2023-05-07T00:25:32.267Z,8.50
2023-05-07T00:28:03.659Z,8.50
2023-05-07T00:30:30.740Z,8.50
2023-05-07T00:32:57.717Z,8.50
2023-05-07T00:35:24.568Z,8.50
2023-05-07T00:37:51.340Z,8.50
2023-05-07T00:40:18.110Z,8.50
2023-05-07T00:42:47.954Z,8.60
2023-05-07T00:45:15.232Z,8.60
2023-05-07T00:47:42.432Z,8.60
2023-05-07T00:50:11.168Z,8.60
2023-05-07T00:52:39.874Z,8.60
2023-05-07T00:55:08.218Z,8.60
2023-05-07T00:57:40.588Z,8.60
2023-05-07T01:00:10.970Z,8.60
2023-05-07T01:02:37.885Z,8.60
2023-05-07T01:05:07.989Z,8.60
2023-05-07T01:07:36.949Z,8.60
2023-05-07T01:10:05.461Z,8.60
2023-05-07T01:12:32.542Z,8.60
2023-05-07T01:14:59.474Z,8.60
2023-05-07T01:17:26.121Z,8.60
2023-05-07T01:19:54.097Z,8.60
2023-05-07T01:22:33.397Z,8.60
2023-05-07T01:25:02.446Z,8.60
2023-05-07T01:27:29.845Z,8.60
2023-05-07T01:29:59.192Z,8.70
2023-05-07T01:32:36.606Z,8.70
2023-05-07T01:35:07.174Z,8.70
2023-05-07T01:37:34.571Z,8.70
2023-05-07T01:40:02.851Z,8.70
2023-05-07T01:42:30.578Z,8.70
2023-05-07T01:44:57.606Z,8.70
2023-05-07T01:47:25.445Z,8.70
2023-05-07T01:49:52.291Z,8.70
2023-05-07T01:52:19.038Z,8.70
2023-05-07T01:54:45.646Z,8.70
2023-05-07T01:57:12.255Z,8.80
2023-05-07T01:59:39.000Z,8.80
2023-05-07T02:02:05.690Z,8.70
2023-05-07T02:04:32.431Z,8.70
2023-05-07T02:06:59.186Z,8.60
2023-05-07T02:09:25.834Z,8.60
2023-05-07T02:11:52.441Z,8.60
2023-05-07T02:14:21.107Z,8.60
2023-05-07T02:16:47.887Z,8.70
2023-05-07T02:19:14.638Z,8.60
2023-05-07T02:21:41.288Z,8.60
2023-05-07T02:24:08.108Z,8.60
2023-05-07T02:26:35.186Z,8.60
2023-05-07T02:29:01.914Z,8.60
2023-05-07T02:31:28.528Z,8.70
2023-05-07T02:33:55.184Z,8.70
2023-05-07T02:36:21.790Z,8.70
2023-05-07T02:38:48.416Z,8.70
2023-05-07T02:41:15.053Z,8.60
2023-05-07T02:43:41.639Z,8.50
2023-05-07T02:46:10.154Z,8.60
2023-05-07T02:48:37.484Z,8.50
2023-05-07T02:51:04.958Z,8.60
2023-05-07T02:53:31.761Z,8.50
2023-05-07T02:56:00.029Z,8.50
2023-05-07T02:58:27.269Z,8.50
2023-05-07T03:00:55.640Z,8.50
2023-05-07T03:03:22.493Z,8.50
2023-05-07T03:05:49.172Z,8.50
2023-05-07T03:08:15.859Z,8.50
2023-05-07T03:10:42.553Z,8.50
2023-05-07T03:13:09.248Z,8.50
2023-05-07T03:15:36.514Z,8.50
2023-05-07T03:18:03.380Z,8.50
2023-05-07T03:20:31.037Z,8.40
2023-05-07T03:22:57.857Z,8.30
2023-05-07T03:25:24.621Z,8.30
2023-05-07T03:27:51.353Z,8.30
2023-05-07T03:30:18.108Z,8.30
2023-05-07T03:32:44.874Z,8.30
2023-05-07T03:35:11.712Z,8.30
2023-05-07T03:37:39.316Z,8.30
2023-05-07T03:40:06.927Z,8.30
2023-05-07T03:42:33.586Z,8.30
2023-05-07T03:45:00.255Z,8.40
2023-05-07T03:47:26.984Z,8.40
2023-05-07T03:49:54.923Z,8.40
2023-05-07T03:52:25.640Z,8.40
2023-05-07T03:54:53.378Z,8.30
2023-05-07T03:57:20.505Z,8.40
2023-05-07T03:59:47.225Z,8.40
2023-05-07T04:02:13.874Z,8.40
2023-05-07T04:04:40.684Z,8.40
2023-05-07T04:07:08.386Z,8.40
2023-05-07T04:09:35.244Z,8.40
2023-05-07T04:12:02.372Z,8.40
2023-05-07T04:14:29.067Z,8.40
2023-05-07T04:16:55.819Z,8.40
2023-05-07T04:19:22.530Z,8.40
2023-05-07T04:21:49.337Z,8.40
2023-05-07T04:24:16.024Z,8.40
2023-05-07T04:26:42.653Z,8.50
2023-05-07T04:29:09.365Z,8.40
2023-05-07T04:31:36.335Z,8.50
2023-05-07T04:34:03.175Z,8.50
2023-05-07T04:36:30.163Z,8.50
2023-05-07T04:38:56.855Z,8.50
2023-05-07T04:41:23.676Z,8.60
2023-05-07T04:43:50.651Z,8.70
2023-05-07T04:46:17.402Z,8.70
2023-05-07T04:48:44.215Z,8.70
2023-05-07T04:51:11.028Z,8.70
2023-05-07T04:53:38.782Z,8.80
2023-05-07T04:56:05.646Z,8.70
2023-05-07T04:58:32.786Z,8.80
2023-05-07T05:01:01.371Z,8.80
2023-05-07T05:03:28.391Z,8.80
2023-05-07T05:05:55.099Z,8.80
2023-05-07T05:08:21.858Z,8.80
2023-05-07T05:10:51.113Z,8.90
2023-05-07T05:13:18.002Z,9.00
2023-05-07T05:15:44.872Z,8.90
2023-05-07T05:18:11.670Z,9.00
2023-05-07T05:20:38.358Z,9.10
2023-05-07T05:23:05.025Z,9.10
2023-05-07T05:25:31.750Z,9.10
2023-05-07T05:27:58.352Z,9.20
2023-05-07T05:30:25.032Z,9.20
2023-05-07T05:32:51.774Z,9.20
2023-05-07T05:35:18.452Z,9.30
2023-05-07T05:37:45.320Z,9.40
2023-05-07T05:40:12.600Z,9.40
2023-05-07T05:42:39.557Z,9.40
2023-05-07T05:45:06.915Z,9.50
2023-05-07T05:47:33.807Z,9.50
2023-05-07T05:50:00.645Z,9.60
2023-05-07T05:52:27.345Z,9.70
2023-05-07T05:54:54.913Z,9.60
2023-05-07T05:57:21.616Z,9.60
2023-05-07T05:59:48.466Z,9.70
2023-05-07T06:02:15.405Z,9.80
2023-05-07T06:04:43.849Z,9.80
2023-05-07T06:07:10.769Z,9.80
2023-05-07T06:09:37.427Z,10.00
2023-05-07T06:12:04.487Z,9.90
2023-05-07T06:14:31.555Z,9.90
2023-05-07T06:16:58.353Z,9.80
2023-05-07T06:19:25.250Z,9.80
2023-05-07T06:21:51.946Z,10.00
2023-05-07T06:24:18.551Z,10.10
2023-05-07T06:26:45.190Z,10.20
2023-05-07T06:29:12.039Z,10.40
2023-05-07T06:31:38.801Z,10.40
2023-05-07T06:34:06.225Z,10.50
2023-05-07T06:36:32.844Z,10.70
2023-05-07T06:38:59.473Z,10.60
2023-05-07T06:41:26.875Z,10.60
2023-05-07T06:43:53.574Z,10.70
2023-05-07T06:46:20.443Z,10.70
2023-05-07T06:48:47.112Z,10.70
2023-05-07T06:51:13.941Z,10.80
2023-05-07T06:53:41.530Z,10.70
2023-05-07T06:56:08.177Z,10.80
2023-05-07T06:58:35.197Z,10.90
2023-05-07T07:01:01.917Z,10.90
2023-05-07T07:03:28.687Z,11.00
2023-05-07T07:05:56.068Z,11.20
2023-05-07T07:08:23.435Z,11.10
2023-05-07T07:10:50.385Z,11.20
2023-05-07T07:13:17.213Z,11.30
2023-05-07T07:15:44.465Z,11.40
2023-05-07T07:18:11.348Z,11.40
2023-05-07T07:20:38.148Z,11.40
2023-05-07T07:23:04.902Z,11.40
2023-05-07T07:25:31.570Z,11.40
2023-05-07T07:27:58.345Z,11.40
2023-05-07T07:30:27.055Z,11.40
2023-05-07T07:32:53.964Z,11.40
2023-05-07T07:35:20.700Z,11.40
2023-05-07T07:37:50.811Z,11.30
2023-05-07T07:40:17.505Z,11.20
2023-05-07T07:42:44.328Z,11.40
2023-05-07T07:45:11.491Z,11.50
2023-05-07T07:47:38.258Z,11.60
2023-05-07T07:50:05.482Z,11.60
2023-05-07T07:52:32.206Z,11.60
2023-05-07T07:54:58.802Z,11.70
2023-05-07T07:57:25.542Z,11.80
2023-05-07T07:59:52.422Z,11.90
2023-05-07T08:02:19.174Z,12.00
2023-05-07T08:04:46.213Z,12.10
2023-05-07T08:07:13.061Z,12.20
2023-05-07T08:09:39.971Z,12.40
2023-05-07T08:12:07.441Z,12.60
2023-05-07T08:14:35.678Z,12.70
2023-05-07T08:17:02.462Z,12.80
2023-05-07T08:19:29.230Z,12.80
2023-05-07T08:21:56.527Z,13.10
2023-05-07T08:24:23.228Z,13.10
2023-05-07T08:26:50.711Z,13.20
2023-05-07T08:29:17.371Z,13.20
2023-05-07T08:31:44.158Z,13.30
2023-05-07T08:34:11.569Z,13.20
2023-05-07T08:36:38.195Z,13.30
2023-05-07T08:39:05.057Z,13.50
2023-05-07T08:41:32.189Z,13.60
2023-05-07T08:47:55.831Z,13.50
2023-05-07T08:50:22.623Z,13.30
2023-05-07T08:52:49.964Z,13.40
2023-05-07T08:55:16.686Z,13.40
2023-05-07T08:57:43.307Z,13.70
2023-05-07T09:00:11.122Z,13.80
2023-05-07T09:02:38.293Z,13.90
2023-05-07T09:05:05.585Z,14.00
2023-05-07T09:07:32.282Z,14.10
2023-05-07T09:09:59.106Z,14.10
2023-05-07T09:12:25.855Z,13.90
2023-05-07T09:14:52.617Z,13.90
2023-05-07T09:17:19.617Z,14.00
2023-05-07T09:19:46.915Z,14.10
2023-05-07T09:22:14.090Z,14.30
2023-05-07T09:24:40.867Z,14.40
2023-05-07T09:27:09.273Z,14.50
2023-05-07T09:29:38.612Z,14.70
2023-05-07T09:32:07.529Z,14.90
2023-05-07T09:34:34.488Z,15.00
2023-05-07T09:37:05.358Z,15.00
2023-05-07T09:39:49.670Z,15.10
2023-05-07T09:42:16.320Z,15.10
2023-05-07T09:44:44.440Z,15.10
2023-05-07T09:47:12.653Z,15.20
2023-05-07T09:49:43.209Z,15.10
2023-05-07T09:52:11.626Z,15.10
2023-05-07T09:54:39.019Z,15.20
2023-05-07T09:57:08.100Z,15.40
2023-05-07T09:59:37.492Z,15.50
2023-05-07T10:02:05.436Z,15.40
2023-05-07T10:04:33.446Z,15.50
2023-05-07T10:07:00.730Z,15.60
2023-05-07T10:09:27.881Z,15.80
2023-05-07T10:11:55.316Z,16.00
2023-05-07T10:14:22.699Z,16.20
2023-05-07T10:16:49.897Z,16.30
2023-05-07T10:19:17.422Z,16.20
2023-05-07T10:21:58.039Z,16.00
2023-05-07T10:24:32.495Z,16.00
2023-05-07T10:27:01.527Z,16.10
2023-05-07T10:29:28.172Z,16.10
2023-05-07T10:32:12.053Z,16.20
2023-05-07T10:34:42.785Z,16.40
2023-05-07T10:37:11.730Z,16.60
2023-05-07T10:39:38.972Z,16.70
2023-05-07T10:42:13.335Z,16.70
2023-05-07T10:44:40.578Z,16.70
2023-05-07T10:47:10.403Z,16.60
2023-05-07T10:49:57.933Z,16.60
2023-05-07T10:52:27.537Z,16.80
2023-05-07T10:55:26.841Z,17.00
2023-05-07T10:57:53.608Z,17.30
2023-05-07T11:00:40.285Z,17.70
2023-05-07T11:03:07.998Z,18.40
2023-05-07T11:05:37.897Z,18.30
2023-05-07T11:08:05.514Z,18.60
2023-05-07T11:10:55.220Z,18.80
2023-05-07T11:13:52.813Z,18.70
2023-05-07T11:16:20.251Z,18.70
2023-05-07T11:18:54.706Z,18.90
2023-05-07T11:21:38.430Z,18.70
2023-05-07T11:24:09.816Z,18.50
2023-05-07T11:26:50.786Z,18.30
2023-05-07T11:29:23.216Z,18.20
2023-05-07T11:31:55.277Z,18.10
2023-05-07T11:34:23.845Z,18.20
2023-05-07T11:36:50.841Z,18.40
2023-05-07T11:39:37.070Z,18.70
2023-05-07T11:42:04.183Z,19.20
2023-05-07T11:44:42.748Z,19.60
2023-05-07T11:47:09.388Z,19.70
2023-05-07T11:49:36.166Z,19.90
2023-05-07T11:52:04.418Z,19.10
2023-05-07T11:54:39.087Z,19.50
2023-05-07T11:57:06.726Z,19.60
2023-05-07T11:59:45.210Z,20.00
2023-05-07T12:02:14.221Z,20.30
2023-05-07T12:04:40.972Z,20.20
2023-05-07T12:07:13.738Z,20.30
2023-05-07T12:09:41.687Z,20.50
2023-05-07T12:12:09.061Z,20.80
2023-05-07T12:14:42.721Z,20.80
2023-05-07T12:17:10.318Z,21.20
2023-05-07T12:19:38.500Z,21.00
2023-05-07T12:22:06.069Z,21.40
2023-05-07T12:24:57.238Z,21.80
2023-05-07T12:27:24.372Z,22.00
2023-05-07T12:29:51.998Z,21.70
2023-05-07T12:32:20.505Z,21.90
2023-05-07T12:34:50.831Z,21.70
2023-05-07T12:37:17.845Z,21.90
2023-05-07T12:40:04.039Z,21.20
2023-05-07T12:42:36.296Z,20.00
2023-05-07T12:45:29.501Z,19.70
2023-05-07T12:47:56.178Z,19.40
2023-05-07T12:50:22.948Z,18.60
2023-05-07T12:52:49.837Z,18.60
2023-05-07T12:55:17.863Z,19.20
2023-05-07T12:57:50.186Z,19.90
2023-05-07T13:00:17.269Z,20.80
2023-05-07T13:02:45.653Z,20.50
2023-05-07T13:05:12.922Z,20.40
2023-05-07T13:07:41.712Z,20.50
2023-05-07T13:10:08.985Z,20.50
2023-05-07T13:12:36.122Z,20.30
2023-05-07T13:15:03.188Z,20.10
2023-05-07T13:17:31.847Z,20.30
2023-05-07T13:19:58.569Z,20.40
2023-05-07T13:22:25.395Z,20.00
2023-05-07T13:24:52.014Z,20.30
2023-05-07T13:27:20.133Z,19.90
2023-05-07T13:29:46.872Z,19.50
2023-05-07T13:32:13.605Z,19.60
2023-05-07T13:34:40.411Z,19.70
2023-05-07T13:37:11.401Z,20.00
2023-05-07T13:39:38.352Z,20.70
2023-05-07T13:42:05.026Z,21.50
2023-05-07T13:44:31.757Z,22.10
2023-05-07T13:46:58.381Z,22.40
2023-05-07T13:49:25.320Z,22.50
2023-05-07T13:51:51.966Z,22.40
2023-05-07T13:54:18.679Z,22.60
2023-05-07T13:56:45.346Z,23.10
2023-05-07T13:59:11.982Z,23.20
2023-05-07T14:01:38.755Z,23.30
2023-05-07T14:04:05.678Z,23.40
2023-05-07T14:06:32.363Z,23.00
2023-05-07T14:08:59.312Z,22.80
2023-05-07T14:11:26.150Z,23.20
2023-05-07T14:13:52.789Z,23.20
2023-05-07T14:16:19.396Z,22.60
2023-05-07T14:18:46.158Z,22.20
2023-05-07T14:21:12.796Z,21.90
2023-05-07T14:23:39.398Z,21.60
2023-05-07T14:26:06.122Z,21.10
2023-05-07T14:28:32.734Z,21.00
2023-05-07T14:30:59.644Z,21.10
2023-05-07T14:33:26.319Z,21.10
2023-05-07T14:35:52.973Z,21.10
2023-05-07T14:38:19.747Z,21.00
2023-05-07T14:40:46.531Z,21.00
2023-05-07T14:43:13.118Z,20.90
2023-05-07T14:45:39.892Z,20.80
2023-05-07T14:48:06.669Z,20.80
2023-05-07T14:50:33.390Z,20.60
2023-05-07T14:53:00.121Z,20.50
2023-05-07T14:55:26.804Z,20.20
2023-05-07T14:57:53.488Z,19.80
2023-05-07T15:00:20.371Z,19.80
2023-05-07T15:02:47.287Z,20.00
2023-05-07T15:05:15.550Z,21.00
2023-05-07T15:07:42.302Z,21.80
2023-05-07T15:10:09.454Z,22.40
2023-05-07T15:12:36.234Z,23.30
2023-05-07T15:15:03.429Z,23.00
2023-05-07T15:17:30.084Z,22.40
2023-05-07T15:19:56.837Z,22.00
2023-05-07T15:22:23.496Z,21.50
2023-05-07T15:24:50.134Z,21.30
2023-05-07T15:27:18.030Z,20.80
2023-05-07T15:29:44.763Z,20.40
2023-05-07T15:32:11.487Z,20.10
2023-05-07T15:34:38.238Z,19.90
2023-05-07T15:37:04.963Z,19.60
2023-05-07T15:39:31.937Z,19.30
2023-05-07T15:41:58.617Z,18.90
2023-05-07T15:44:29.439Z,18.80
2023-05-07T15:46:56.289Z,18.50
2023-05-07T15:49:23.132Z,18.40
2023-05-07T15:51:51.768Z,18.20
2023-05-07T15:54:21.068Z,18.20
2023-05-07T15:56:48.018Z,17.90
2023-05-07T15:59:16.392Z,17.90
2023-05-07T16:01:43.672Z,18.20
2023-05-07T16:04:10.889Z,18.80
2023-05-07T16:06:37.570Z,19.50
2023-05-07T16:09:04.203Z,19.60
2023-05-07T16:11:30.903Z,18.80
2023-05-07T16:13:57.590Z,18.80
2023-05-07T16:16:26.652Z,18.60
2023-05-07T16:18:53.374Z,18.40
2023-05-07T16:21:19.996Z,18.20
2023-05-07T16:23:46.888Z,18.20
2023-05-07T16:26:14.628Z,18.10
2023-05-07T16:28:41.245Z,17.90
2023-05-07T16:31:08.675Z,17.70
2023-05-07T16:33:35.745Z,17.60
2023-05-07T16:36:03.321Z,17.70
2023-05-07T16:38:33.154Z,17.70
2023-05-07T16:41:00.278Z,17.50
2023-05-07T16:43:26.887Z,17.30
2023-05-07T16:45:53.745Z,17.20
2023-05-07T16:48:21.214Z,17.10
2023-05-07T16:50:47.992Z,17.00
2023-05-07T16:53:14.916Z,16.90
2023-05-07T16:55:41.779Z,16.80
2023-05-07T16:58:11.855Z,16.70
2023-05-07T17:00:49.900Z,16.70
2023-05-07T17:03:17.143Z,16.50
2023-05-07T17:05:44.038Z,16.60
2023-05-07T17:08:10.716Z,16.40
2023-05-07T17:10:37.324Z,16.40
2023-05-07T17:13:04.115Z,16.40
2023-05-07T17:15:30.896Z,16.30
2023-05-07T17:17:57.745Z,16.40
2023-05-07T17:20:25.425Z,16.30
2023-05-07T17:22:52.242Z,16.20
2023-05-07T17:25:19.013Z,16.10
2023-05-07T17:27:45.671Z,15.90
2023-05-07T17:30:13.161Z,15.80
2023-05-07T17:32:40.461Z,15.80
2023-05-07T17:35:07.462Z,15.90
2023-05-07T17:37:34.515Z,15.80
2023-05-07T17:40:01.905Z,15.80
2023-05-07T17:42:28.534Z,15.80
2023-05-07T17:44:55.847Z,15.70
2023-05-07T17:47:22.637Z,15.60
2023-05-07T17:49:49.442Z,15.50
2023-05-07T17:52:16.214Z,15.30
2023-05-07T17:54:43.336Z,15.20
2023-05-07T17:57:10.041Z,15.00
2023-05-07T17:59:37.047Z,14.90
2023-05-07T18:02:03.750Z,14.80
2023-05-07T18:04:30.468Z,14.80
2023-05-07T18:06:57.342Z,14.70
2023-05-07T18:09:24.182Z,14.60
2023-05-07T18:11:50.794Z,14.60
2023-05-07T18:14:17.472Z,14.50
2023-05-07T18:16:44.288Z,14.30
2023-05-07T18:19:12.061Z,14.20
2023-05-07T18:21:38.728Z,14.10
2023-05-07T18:24:05.654Z,14.00
2023-05-07T18:26:32.309Z,14.00
2023-05-07T18:28:59.122Z,14.00
2023-05-07T18:31:25.838Z,13.90
2023-05-07T18:33:53.162Z,13.90
2023-05-07T18:36:19.826Z,13.90
2023-05-07T18:38:46.415Z,13.80
2023-05-07T18:41:14.140Z,13.70
2023-05-07T18:43:40.759Z,13.70
2023-05-07T18:46:07.597Z,13.60
2023-05-07T18:48:34.291Z,13.50
2023-05-07T18:51:00.987Z,13.50
2023-05-07T18:53:29.093Z,13.40
2023-05-07T18:55:55.887Z,13.40
2023-05-07T18:58:22.602Z,13.30
2023-05-07T19:00:50.041Z,13.20
2023-05-07T19:03:17.458Z,13.20
2023-05-07T19:05:44.868Z,13.10
2023-05-07T19:08:12.005Z,13.00
2023-05-07T19:10:38.871Z,12.90
2023-05-07T19:13:05.969Z,12.90
2023-05-07T19:15:32.749Z,12.80
2023-05-07T19:17:59.525Z,12.80
2023-05-07T19:20:26.289Z,12.70
2023-05-07T19:22:53.004Z,12.60
2023-05-07T19:25:19.715Z,12.60
2023-05-07T19:27:47.884Z,12.60
2023-05-07T19:30:14.860Z,12.50
2023-05-07T19:32:41.597Z,12.50
2023-05-07T19:35:08.843Z,12.50
2023-05-07T19:37:35.622Z,12.40
2023-05-07T19:40:06.559Z,12.30
2023-05-07T19:42:33.389Z,12.30
2023-05-07T19:45:00.210Z,12.20
2023-05-07T19:47:26.992Z,12.20
2023-05-07T19:49:53.854Z,12.10
2023-05-07T19:52:20.561Z,12.00
2023-05-07T19:54:47.579Z,11.90
2023-05-07T19:57:15.450Z,11.80
2023-05-07T19:59:42.165Z,11.70
2023-05-07T20:02:08.860Z,11.60
2023-05-07T20:04:38.170Z,11.50
2023-05-07T20:07:05.359Z,11.50
2023-05-07T20:09:32.004Z,11.30
2023-05-07T20:11:58.728Z,11.30
2023-05-07T20:14:27.040Z,11.20
2023-05-07T20:16:54.155Z,11.10
2023-05-07T20:19:20.812Z,11.10
2023-05-07T20:21:47.432Z,11.00
2023-05-07T20:24:14.099Z,10.90
2023-05-07T20:26:41.357Z,10.80
2023-05-07T20:29:08.023Z,10.90
2023-05-07T20:31:35.336Z,10.80
2023-05-07T20:34:02.336Z,10.80
2023-05-07T20:36:29.251Z,10.70
2023-05-07T20:38:56.189Z,10.70
2023-05-07T20:41:25.231Z,10.50
2023-05-07T20:43:52.314Z,10.50
2023-05-07T20:46:22.764Z,10.40
2023-05-07T20:48:50.139Z,10.40
2023-05-07T20:51:17.003Z,10.30
2023-05-07T20:53:46.023Z,10.30
2023-05-07T20:56:14.389Z,10.20
2023-05-07T20:58:41.314Z,10.20
2023-05-07T21:01:08.040Z,10.10
2023-05-07T21:03:34.792Z,10.00
2023-05-07T21:06:01.949Z,10.00
2023-05-07T21:08:28.662Z,10.00
2023-05-07T21:10:55.780Z,9.90
2023-05-07T21:13:23.117Z,9.80
2023-05-07T21:15:49.931Z,9.80
2023-05-07T21:18:16.871Z,9.70
2023-05-07T21:20:43.669Z,9.70
2023-05-07T21:23:10.423Z,9.60
2023-05-07T21:25:38.784Z,9.60
2023-05-07T21:28:07.060Z,9.50
2023-05-07T21:30:33.972Z,9.50
2023-05-07T21:33:00.861Z,9.40
2023-05-07T21:35:27.629Z,9.40
2023-05-07T21:37:54.416Z,9.40
2023-05-07T21:40:21.110Z,9.30
2023-05-07T21:42:47.710Z,9.30
2023-05-07T21:45:14.485Z,9.20
2023-05-07T21:47:41.240Z,9.20
2023-05-07T21:50:08.359Z,9.10
2023-05-07T21:52:35.053Z,9.00
2023-05-07T21:55:04.655Z,9.00
2023-05-07T21:57:31.453Z,8.90
2023-05-07T21:59:58.159Z,8.90
2023-05-07T22:02:25.996Z,8.80
2023-05-07T22:04:53.167Z,8.80
2023-05-07T22:07:19.815Z,8.70
2023-05-07T22:09:46.426Z,8.70
2023-05-07T22:12:13.425Z,8.60
2023-05-07T22:14:40.112Z,8.60
2023-05-07T22:17:06.742Z,8.50
2023-05-07T22:19:33.548Z,8.50
2023-05-07T22:22:00.282Z,8.40
2023-05-07T22:24:26.970Z,8.40
2023-05-07T22:26:53.633Z,8.30
2023-05-07T22:29:23.280Z,8.30
2023-05-07T22:31:50.501Z,8.20
2023-05-07T22:34:17.227Z,8.10
2023-05-07T22:36:44.566Z,8.10
2023-05-07T22:39:11.643Z,8.00
2023-05-07T22:41:38.526Z,8.00
2023-05-07T22:44:05.317Z,7.90
2023-05-07T22:46:32.195Z,7.90
2023-05-07T22:48:58.926Z,7.90
2023-05-07T22:51:26.252Z,7.80
2023-05-07T22:53:52.900Z,7.70
2023-05-07T22:56:19.678Z,7.70
2023-05-07T22:58:47.269Z,7.60
2023-05-07T23:01:15.778Z,7.60
2023-05-07T23:03:42.591Z,7.60
2023-05-07T23:06:09.263Z,7.50
2023-05-07T23:08:36.590Z,7.50
2023-05-07T23:11:03.276Z,7.40
2023-05-07T23:13:30.043Z,7.40
2023-05-07T23:15:58.737Z,7.40
2023-05-07T23:18:27.974Z,7.40
2023-05-07T23:20:54.848Z,7.30
2023-05-07T23:23:22.091Z,7.30
2023-05-07T23:25:52.340Z,7.20
2023-05-07T23:28:19.259Z,7.20
2023-05-07T23:30:46.326Z,7.20
2023-05-07T23:33:13.078Z,7.10
2023-05-07T23:35:39.826Z,7.10
2023-05-07T23:38:06.496Z,7.10
2023-05-07T23:40:33.109Z,7.00
2023-05-07T23:42:59.854Z,7.00
2023-05-07T23:45:26.519Z,6.90
2023-05-07T23:47:53.238Z,6.90
2023-05-07T23:50:20.118Z,6.90
2023-05-07T23:52:46.705Z,6.90
2023-05-07T23:55:14.979Z,6.80
2023-05-07T23:57:41.613Z,6.80
